Warning: Javascript must be enabled to use all the features on this page!


Page Loading - Please Wait...

Click to hideNews Bulletins

Streamflow Measurements for the Nation


USGS 11313452 OLD R A FRANKS TRACT NR TERMINOUS CA


Contra Costa County, California
Hydrologic Unit Code 18040003
Latitude  38°04'16", Longitude 121°34'44" NAD83
Output formats
HTML table with channel data
HTML table without channel data
Tab-separated data with channel data
Tab-separated data without channel data
Graph of data
Reselect output format
Meas.
Number
  Date       Time Time
Datum
Measurement
Used?
  Who Measuring
Agency
Stream
flow
(ft3/s)
Gage
Height
(ft)
GH
Change
(ft)
Meas.
Duration
(hr)
Meas.
Rated
  Control Flow
Adjust.
Code
 
6272019-12-12 12:24:19PSTYesAC, NSUSGS-65206.33 Poor NONE
6262019-12-12 12:15:09PSTYesAC, NSUSGS-54306.24 Poor NONE
6252019-12-12 12:06:09PSTYesAC, NSUSGS-42006.17 Poor NONE
6242019-12-12 11:57:10PSTYesAC, NSUSGS-36106.09 Poor NONE
6232019-12-12 11:47:58PSTYesAC, NSUSGS-20806.01 Poor NONE
6222019-12-12 11:38:57PSTYesAC, NSUSGS-16405.96 Poor NONE
6212019-11-21 10:30:11PSTYesAC/NWSUSGS-139006.00 Poor NONE
6202019-11-21 10:20:45PSTYesAC/NWSUSGS-138005.91 Poor NONE
6192019-11-21 10:10:37PSTYesAC/NWSUSGS-136005.82 Poor NONE
6182019-11-21 09:59:48PSTYesAC/NWSUSGS-133005.73 Poor NONE
6172019-11-21 09:48:54PSTYesAC/NWSUSGS-123005.63 Poor NONE
6162019-11-21 09:38:52PSTYesAC/NWSUSGS-119005.54 Poor NONE
6152019-09-12 11:36:42PSTYesNS/ZH/TDUSGS17104.28 Fair NONE
6142019-09-12 11:28:45PSTYesNS/ZH/TDUSGS32304.22 Fair NONE
6132019-09-12 11:21:19PSTYesNS/ZH/TDUSGS43504.18 Fair NONE
6122019-09-12 11:13:46PSTYesNS/ZH/TDUSGS54504.15 Fair NONE
6112019-09-12 11:05:33PSTYesNS/ZH/TDUSGS68404.13 Fair NONE
6102019-09-12 10:57:07PSTYesNS/ZH/TDUSGS77004.13 Fair NONE
6092019-07-16 10:20:38PSTYesNS/MP/TDUSGS142004.87 Unspecified NONE
6082019-07-16 10:13:09PSTYesNS/MP/TDUSGS149004.85 Unspecified NONE
6072019-07-16 10:05:54PSTYesNS/MP/TDUSGS148004.84 Unspecified NONE
6062019-07-16 09:57:08PSTYesNS/MP/TDUSGS149004.84 Unspecified NONE
6052019-07-16 09:48:04PSTYesNS/MP/TDUSGS150004.85 Unspecified NONE
6042019-07-16 09:39:48PSTYesNS/MP/TDUSGS149004.87 Unspecified NONE
6032019-05-30 09:51:30PSTYesMP, NSUSGS56904.87 Good NONE
6022019-05-30 09:43:11PSTYesMP, NSUSGS63304.85 Good NONE
6012019-05-30 09:34:39PSTYesMP, NSUSGS71004.84 Good NONE
6002019-05-30 09:26:15PSTYesMP, NSUSGS77704.84 Good NONE
5992019-05-30 09:17:39PSTYesMP, NSUSGS87604.85 Good NONE
5982019-05-30 09:08:14PSTYesMP, NSUSGS92204.87 Good NONE
5972019-04-04 10:18:08PSTYesZH,NSUSGS80705.61 Good NONE
5962019-04-04 10:11:40PSTYesZH,NSUSGS81005.64 Good NONE
5952019-04-04 10:03:52PSTYesZH,NSUSGS87905.69 Good NONE
5942019-04-04 09:54:31PSTYesZH,NSUSGS89405.73 Good NONE
5932019-04-04 09:44:04PSTYesZH,NSUSGS98205.80 Good NONE
5922019-04-04 09:32:16PSTYesZH,NSUSGS97305.87 Good NONE
5912019-02-28 15:03:59PSTYesNS/TDUSGS46607.20 Good NONE
5902019-02-28 14:54:10PSTYesNS/TDUSGS27507.26 Good NONE
5892019-02-28 14:43:22PSTYesNS/TDUSGS10307.34 Good NONE
5882019-02-28 14:32:36PSTYesNS/TDUSGS-11407.41 Good NONE
5872019-02-28 14:18:59PSTYesNS/TDUSGS-24407.49 Good NONE
5862019-02-28 14:06:13PSTYesNS/TDUSGS-60507.57 Good NONE
5852018-11-01 10:12:56PSTNo
5842018-09-27 13:04:10PSTYesNS/MPUSGS-10504.90 Fair NONE
5832018-09-27 12:54:44PSTYesNS/MPUSGS5594.82 Fair NONE
5822018-09-27 12:43:45PSTYesNS/MPUSGS23204.74 Fair NONE
5812018-09-27 12:35:13PSTYesNS/MPUSGS38804.714.71 Good NONE
5802018-09-27 12:26:49PSTYesNS/MPUSGS49404.694.69 Good NONE
5792018-09-27 12:18:34PSTYesNS/MPUSGS63304.65 Good NONE
5782018-08-02 12:35:27PSTYesCC/NSUSGS135004.98 Good NONE
5772018-08-02 12:29:16PSTYesCC/NSUSGS135005.04 Good NONE
5762018-08-02 12:22:34PSTYesCC/NSUSGS139005.09 Good NONE
5752018-08-02 12:15:48PSTYesCC/NSUSGS142005.14 Good NONE
5742018-08-02 12:09:33PSTYesCC/NSUSGS141005.20 Good NONE
5732018-08-02 12:03:36PSTYesCC/NSUSGS146005.25 Unspecified NONE
5722018-06-07 12:02:20PSTYesNS/CCUSGS-61805.90 Good NONE
5712018-06-07 11:54:49PSTYesNS/CCUSGS-62305.93 Good NONE
5702018-06-07 11:46:28PSTYesNS/CCUSGS-62805.98 Good NONE
5692018-06-07 11:39:04PSTYesNS/CCUSGS-62506.00 Good NONE
5682018-06-07 11:30:24PSTYesNS/CCUSGS-71206.05 Good NONE
5672018-06-07 11:22:53PSTYesNS/CCUSGS-52206.02 Good NONE
5662018-04-23 12:07:48PSTYesNWS/RPJUSGS-57706.69 Unspecified NONE
5652018-04-23 11:58:44PSTYesNWS/RPJUSGS-70206.76 Unspecified NONE
5642018-04-23 11:49:20PSTYesNWS/RPJUSGS-79806.82 Unspecified NONE
5632018-04-23 11:41:19PSTYesNWS/RPJUSGS-84006.87 Unspecified NONE
5622018-04-23 11:33:01PSTYesNWS/RPJUSGS-86206.93 Unspecified NONE
5612018-04-23 11:23:22PSTYesNWS/RPJUSGS-84106.99 Unspecified NONE
5602018-02-06 12:39PSTYesNWS/BJSUSGS46206.06 Unspecified NONE
5592018-02-06 12:29:30PSTYesNWS/BJSUSGS30806.13 Unspecified NONE
5582018-02-06 12:20PSTYesNWS/BJSUSGS12206.20 Unspecified NONE
5572018-02-06 12:10:30PSTYesNWS/BJSUSGS-11106.26 Unspecified NONE
5562018-02-06 12:01PSTYesNWS/BJSUSGS-35806.33 Unspecified NONE
5552018-02-06 11:53:30PSTYesNWS/BJSUSGS-54606.37 Unspecified NONE
5542017-10-31 11:36:30PSTYesNWS/BJSUSGS-136005.94 Good NONE
5532017-10-31 11:28:54PSTYesNWS/BJSUSGS-131005.88 Good NONE
5522017-10-31 11:21:19PSTYesNWS/BJSUSGS-132005.81 Good NONE
5512017-10-31 11:13:47PSTYesNWS/BJSUSGS-125005.75 Good NONE
5502017-10-31 11:06PSTYesNWS/BJSUSGS-120005.68 Good NONE
5492017-10-31 10:58:21PSTYesNWS/BJSUSGS-108005.61 Good NONE
5482017-08-15 12:34:37PSTNo
5472017-08-10 10:11:30PSTYesBS/NSUSGS165005.63 UnspecifiedUnspecifedNONE
5462017-08-10 10:00:30PSTYesBS/NSUSGS152005.73 UnspecifiedUnspecifedNONE
5452017-08-10 09:49:30PSTYesBS/NSUSGS167005.84 UnspecifiedUnspecifedNONE
5442017-08-10 09:39PSTYesBS/NSUSGS152005.94 UnspecifiedUnspecifedNONE
5432017-08-10 09:28:30PSTYesBS/NSUSGS164006.03 UnspecifiedUnspecifedNONE
5422017-08-10 09:18PSTYesBS/NSUSGS144006.12 UnspecifiedUnspecifedNONE
5412017-05-25 12:00PSTYesBS/NWSUSGS80105.24 Unspecified NONE
5402017-05-25 11:50:30PSTYesBS/NWSUSGS93605.23 Unspecified NONE
5392017-05-25 11:39:30PSTYesBS/NWSUSGS108005.23 Unspecified NONE
5382017-05-25 11:30PSTYesBS/NWSUSGS116005.26 Unspecified NONE
5372017-05-25 11:20:30PSTYesBS/NWSUSGS124005.31 Unspecified NONE
5362017-05-25 11:10PSTYesBS/NWSUSGS130005.35 Unspecified NONE
5352017-05-04 13:39:12PSTYesBS/BFUSGS-25907.03 Good NONE
5342017-05-04 13:30:30PSTYesBS/BFUSGS-44307.08 Unspecified NONE
5332017-05-04 13:22:30PSTYesBS/BFUSGS-59707.12 Unspecified NONE
5322017-05-04 13:14:30PSTYesBS/BFUSGS-75807.17 Unspecified NONE
5312017-05-04 13:06:30PSTYesBS/BFUSGS-90507.22 Unspecified NONE
5302017-05-04 12:58PSTYesBS/BFUSGS-101007.26 Unspecified NONE
5292017-03-16 11:59PSTYesBS/NSUSGS129006.04 Unspecified NONE
5282017-03-16 11:50PSTYesBS/NSUSGS132006.11 Unspecified NONE
5272017-03-16 11:40:30PSTYesBS/NSUSGS134006.17 Unspecified NONE
5262017-03-16 11:31PSTYesBS/NSUSGS135006.25 Unspecified NONE
5252017-03-16 11:21:30PSTYesBS/NSUSGS140006.31 Unspecified NONE
5242017-03-16 11:13PSTYesBS/NSUSGS135006.38 Unspecified NONE
5232017-03-03 10:19PSTYesBS/RJUSGS-6817.89 Unspecified NONE
5222017-03-03 10:11:30PSTYesBS/RJUSGS-23207.94 Unspecified NONE
5212017-03-03 10:02:30PSTYesBS/RJUSGS-45007.99 Unspecified NONE
5202017-03-03 09:53PSTYesBS/RJUSGS-65508.03 Unspecified NONE
5192017-03-03 09:43:30PSTYesBS/RJUSGS-83008.08 Unspecified NONE
5182017-03-03 09:33PSTYesBS/RJUSGS-106008.13 Unspecified NONE
5172016-12-22 13:19:30PSTYesBS/NDUSGS-111007.47 Unspecified NONE
5162016-12-22 13:10:30PSTYesBS/NDUSGS-108007.52 Unspecified NONE
5152016-12-22 13:01:30PSTYesBS/NDUSGS-98207.56 Unspecified NONE
5142016-12-22 12:52PSTYesBS/NDUSGS-96707.59 Unspecified NONE
5132016-12-22 12:43PSTYesBS/NDUSGS-91907.61 Unspecified NONE
5122016-12-22 12:34:30PSTYesBS/NDUSGS-93807.61 Unspecified NONE
5112016-08-23 14:01:30PSTYesBS/BLUSGS114004.65 Unspecified NONE
5102016-08-23 13:50:30PSTYesBS/BLUSGS106004.70 Unspecified NONE
5092016-08-23 13:39:30PSTYesBS/BLUSGS115004.76 Unspecified NONE
5082016-08-23 13:27PSTYesBS/BLUSGS117004.84 Unspecified NONE
5072016-08-23 13:13PSTYesBS/BLUSGS118004.94 Unspecified NONE
5062016-08-23 13:02:30PSTYesBS/BLUSGS125005.02 Unspecified NONE
5052016-04-07 14:17:08PSTYesTV, CHUSGS-79306.01 Poor NONE
5042016-04-07 14:08:50PSTYesTV, CHUSGS-71105.93 Poor NONE
5032016-04-07 14:02:04PSTYesTV, CHUSGS-60905.87 Poor NONE
5022016-04-07 13:54:43PSTYesTV, CHUSGS-52105.80 Poor NONE
5012016-04-07 13:48:07PSTYesTV, CHUSGS-41405.73 Poor NONE
5002016-04-07 13:41:02PSTYesTV, CHUSGS-31305.67 Poor NONE
4992015-10-06 15:27:47PSTYesTV, CHUSGS82406.44 Good NONE
4982015-10-06 15:11:17PSTYesTV, CHUSGS44906.54 Good NONE
4972015-10-06 14:54:37PSTYesTV, CHUSGS2856.63 Good NONE
4962015-10-06 14:39:10PSTYesTV, CHUSGS-25906.72 Good NONE
4952015-06-22 14:29:04PSTYesTV/NVBUSGS270004.38 Fair NONE
4942015-06-22 14:24:16PSTYesTV/NVBUSGS269004.38 Fair NONE
4932015-06-22 14:13:28PSTYesTV/NVBUSGS279004.46 Fair NONE
4922015-06-22 14:01:05PSTYesTV/NVBUSGS291004.52 Fair NONE
4912015-06-22 13:48:43PSTYesTV/NVBUSGS296004.57 Fair NONE
4902015-06-22 13:36:12PSTYesTV/NVBUSGS294004.68 Fair NONE
4892015-06-22 11:30:16PSTYesTV/NVBUSGS299005.77 Fair NONE
4882015-06-22 11:19:50PSTYesTV/NVBUSGS283005.82 Fair NONE
4872015-06-22 11:08:32PSTYesTV/NVBUSGS289005.92 Fair NONE
4862015-06-22 10:56:57PSTYesTV/NVBUSGS275006.04 Fair NONE
4852015-06-22 10:44:04PSTYesTV/NVBUSGS259006.09 Fair NONE
4842015-06-22 10:34:47PSTYesTV/NVBUSGS246006.14 Fair NONE
4832015-06-17 22:40PSTYesMVC/TVUSGS24100 UnspecifiedUnspecifedNONE
4822015-06-17 22:33PSTYesMVC/TVUSGS24300 UnspecifiedUnspecifedNONE
4812015-06-17 22:18PSTYesMVC/TVUSGS25000 UnspecifiedUnspecifedNONE
4802015-06-17 22:08PSTYesMVC/TVUSGS26200 UnspecifiedUnspecifedNONE
4792015-06-17 21:58PSTYesMVC/TVUSGS26300 UnspecifiedUnspecifedNONE
4782015-06-17 21:48PSTYesMVC/TVUSGS25400 UnspecifiedUnspecifedNONE
4772015-06-17 21:34PSTYesMVC/TVUSGS24800 UnspecifiedUnspecifedNONE
4762015-06-17 21:25PSTYesMVC/TVUSGS23600 UnspecifiedUnspecifedNONE
4752015-06-17 21:16PSTYesMVC/TVUSGS23300 UnspecifiedUnspecifedNONE
4742015-06-17 21:11PSTYesMVC/TVUSGS22600 UnspecifiedUnspecifedNONE
4732015-06-17 21:01PSTYesMVC/TVUSGS21900 UnspecifiedUnspecifedNONE
4722015-06-17 20:51PSTYesMVC/TVUSGS19400 UnspecifiedUnspecifedNONE
4712015-06-17 20:40PSTYesMVC/TVUSGS17700 UnspecifiedUnspecifedNONE
4702015-06-17 20:27PSTYesMVC/TVUSGS13700 UnspecifiedUnspecifedNONE
4692015-06-17 20:19PSTYesMVC/TVUSGS10700 UnspecifiedUnspecifedNONE
4682015-06-17 20:09PSTYesMVC/TVUSGS7770 UnspecifiedUnspecifedNONE
4672015-06-17 20:00PSTYesMVC/TVUSGS3760 UnspecifiedUnspecifedNONE
4662015-06-17 19:47PSTYesMVC/TVUSGS13.9 UnspecifiedUnspecifedNONE
4652015-06-17 19:40PSTYesMVC/TVUSGS-4240 UnspecifiedUnspecifedNONE
4642015-06-17 19:30PSTYesMVC/TVUSGS-7380 UnspecifiedUnspecifedNONE
4632015-06-17 18:56PSTYesMVC/TVUSGS-18700 UnspecifiedUnspecifedNONE
4622015-06-17 18:47PSTYesMVC/TVUSGS-21300 UnspecifiedUnspecifedNONE
4612015-06-17 18:39PSTYesMVC/TVUSGS-23100 UnspecifiedUnspecifedNONE
4602015-06-17 18:31PSTYesMVC/TVUSGS-24200 UnspecifiedUnspecifedNONE
4592015-06-17 18:22PSTYesMVC/TVUSGS-25700 UnspecifiedUnspecifedNONE
4582015-06-17 18:13PSTYesMVC/TVUSGS-28200 UnspecifiedUnspecifedNONE
4572015-06-17 18:07PSTYesMVC/TVUSGS-29200 UnspecifiedUnspecifedNONE
4562015-06-17 17:58PSTYesMVC/TVUSGS-29300 UnspecifiedUnspecifedNONE
4552015-06-17 17:51PSTYesMVC/TVUSGS-30800 UnspecifiedUnspecifedNONE
4542015-06-17 17:40PSTYesMVC/TVUSGS-31300 UnspecifiedUnspecifedNONE
4532015-06-17 17:14PSTYesMVC/TVUSGS-34100 UnspecifiedUnspecifedNONE
4522015-06-17 17:06PSTYesMVC/TVUSGS-33800 UnspecifiedUnspecifedNONE
4512015-06-17 16:59PSTYesMVC/TVUSGS-33900 UnspecifiedUnspecifedNONE
4502015-06-17 16:49PSTYesMVC/TVUSGS-34400 UnspecifiedUnspecifedNONE
4492015-06-17 16:43PSTYesMVC/TVUSGS-33900 UnspecifiedUnspecifedNONE
4482015-06-17 16:29PSTYesMVC/TVUSGS-34500 UnspecifiedUnspecifedNONE
4472015-06-17 15:54PSTYesMVC/TVUSGS-33800 UnspecifiedUnspecifedNONE
4462015-06-17 15:43PSTYesMVC/TVUSGS-33300 UnspecifiedUnspecifedNONE
4452015-06-17 15:32PSTYesMVC/TVUSGS-32900 UnspecifiedUnspecifedNONE
4442015-06-17 15:20PSTYesMVC/TVUSGS-31600 UnspecifiedUnspecifedNONE
4432015-06-17 15:11PSTYesMVC/TVUSGS-31300 UnspecifiedUnspecifedNONE
4422015-06-17 14:29PSTYesMVC/TVUSGS-26000 UnspecifiedUnspecifedNONE
4412015-06-17 14:20PSTYesMVC/TVUSGS-23700 UnspecifiedUnspecifedNONE
4402015-06-17 13:33PSTYesMVC/TVUSGS3720 UnspecifiedUnspecifedNONE
4392015-06-17 13:18PSTYesMVC/TVUSGS10800 UnspecifiedUnspecifedNONE
4382015-06-17 13:09PSTYesMVC/TVUSGS15900 UnspecifiedUnspecifedNONE
4372015-06-10 21:36PSTYesTV/JDUSGS-36400 GoodClearNONE
4362015-06-10 21:25PSTYesTV/JDUSGS-37100 GoodClearNONE
4352015-06-10 21:04PSTYesTV/JDUSGS-37000 GoodClearNONE
4342015-06-10 20:51PSTYesTV/JDUSGS-36300 GoodClearNONE
4332015-06-10 20:36PSTYesTV/JDUSGS-34800 GoodClearNONE
4322015-06-10 20:24PSTYesTV/JDUSGS-34300 GoodClearNONE
4312015-06-10 20:08PSTYesTV/JDUSGS-34600 GoodClearNONE
4302015-06-10 19:54PSTYesTV/JDUSGS-32700 GoodClearNONE
4292015-06-10 19:41PSTYesTV/JDUSGS-30500 GoodClearNONE
4282015-06-10 19:26PSTYesTV/JDUSGS-27600 GoodClearNONE
4272015-06-10 19:12PSTYesTV/JDUSGS-23000 GoodClearNONE
4262015-06-10 19:01PSTYesTV/JDUSGS-18300 GoodClearNONE
4252015-06-10 18:29PSTYesTV/JDUSGS-2890 GoodClearNONE
4242015-06-10 18:11PSTYesTV/JDUSGS8130 GoodClearNONE
4232015-05-07 13:47PSTYesCH/NDUSGS8680 UnspecifiedUnspecifedNONE
4222015-05-07 13:38PSTYesCH/NDUSGS9110 UnspecifiedUnspecifedNONE
4212015-05-07 13:28PSTYesCH/NDUSGS9710 UnspecifiedUnspecifedNONE
4202015-05-07 13:17PSTYesCH/NDUSGS9310 UnspecifiedUnspecifedNONE
4192015-05-07 13:08PSTYesCH/NDUSGS10300 UnspecifiedUnspecifedNONE
4182015-05-07 12:55PSTYesCH/NDUSGS10900 UnspecifiedUnspecifedNONE
4172015-05-07 12:38PSTYesCH/NDUSGS8890 UnspecifiedUnspecifedNONE
4162015-05-07 12:32PSTYesCH/NDUSGS9140 UnspecifiedUnspecifedNONE
4152015-05-07 12:21PSTYesCH/NDUSGS9420 UnspecifiedUnspecifedNONE
4142015-05-07 12:14PSTYesCH/NDUSGS9980 UnspecifiedUnspecifedNONE
4132015-05-07 12:03PSTYesCH/NDUSGS9630 UnspecifiedUnspecifedNONE
4122015-04-14 15:15PSTYesKM/TVUSGS-4560 UnspecifiedUnspecifedNONE
4112015-04-14 15:07PSTYesKM/TVUSGS-5390 UnspecifiedUnspecifedNONE
4102015-04-14 14:59PSTYesKM/TVUSGS-6070 UnspecifiedUnspecifedNONE
4092015-04-14 14:50PSTYesKM/TVUSGS-6770 UnspecifiedUnspecifedNONE
4082015-04-14 14:42PSTYesKM/TVUSGS-6730 UnspecifiedUnspecifedNONE
4072015-04-14 14:35PSTYesKM/TVUSGS-6720 UnspecifiedUnspecifedNONE
4062015-04-14 14:25PSTYesKM/TVUSGS-6840 UnspecifiedUnspecifedNONE
4052015-04-14 14:17PSTYesKM/TVUSGS-6300 UnspecifiedUnspecifedNONE
4042015-01-20 11:26PSTYesDA/ADUSGS607 UnspecifiedUnspecifedNONE
4032015-01-20 11:11PSTYesDA/ADUSGS2220 UnspecifiedUnspecifedNONE
4022015-01-20 10:58PSTYesDA/ADUSGS2980 UnspecifiedUnspecifedNONE
4012015-01-20 10:47PSTYesDA/ADUSGS3690 UnspecifiedUnspecifedNONE
4002015-01-20 10:33PSTYesDA/ADUSGS4370 UnspecifiedUnspecifedNONE
3992015-01-20 10:20PSTYesDA/ADUSGS5720 UnspecifiedUnspecifedNONE
3982015-01-20 10:07PSTYesDA/ADUSGS6810 UnspecifiedUnspecifedNONE
3972015-01-20 09:54PSTYesDA/ADUSGS7800 UnspecifiedUnspecifedNONE
3962015-01-20 09:27PSTYesDA/ADUSGS8780 UnspecifiedUnspecifedNONE
3952015-01-20 09:07PSTYesDA/ADUSGS8840 UnspecifiedUnspecifedNONE
3942014-09-19 11:19PSTYesDA/NDUSGS-99505.58 UnspecifiedUnspecifedNONE
3932014-09-19 11:02PSTYesDA/NDUSGS-82005.44 UnspecifiedUnspecifedNONE
3922014-09-19 10:47PSTYesDA/NDUSGS-61405.32 UnspecifiedUnspecifedNONE
3912014-09-19 10:35PSTYesDA/NDUSGS-50005.20 UnspecifiedUnspecifedNONE
3902014-09-19 10:22PSTYesDA/NDUSGS-35705.11 UnspecifiedUnspecifedNONE
3892014-09-19 10:12PSTYesDA/NDUSGS-25505.02 UnspecifiedUnspecifedNONE
3882013-04-29 12:48PSTYesHydroUSGS10500 UnspecifiedUnspecifedNONE
3872013-04-29 12:36PSTYesHydroUSGS11800 UnspecifiedUnspecifedNONE
3862013-04-29 12:14PSTYesHydroUSGS11000 UnspecifiedUnspecifedNONE
3852013-04-29 12:01PSTYesHydroUSGS9610 UnspecifiedUnspecifedNONE
3842013-01-10 19:54PSTYesUNK/NMEUSGS143005.75 Unspecified NONE
3832013-01-10 19:39PSTYesUNK/NMEUSGS138005.88 Unspecified NONE
3822013-01-10 19:27PSTYesUNK/NMEUSGS137006.01 Unspecified NONE
3812013-01-10 19:12PSTYesUNK/NMEUSGS139006.15 Unspecified NONE
3802013-01-10 18:59PSTYesUNK/NMEUSGS139006.27 Unspecified NONE
3792013-01-10 18:44PSTYesUNK/NMEUSGS130006.42 Unspecified NONE
3782013-01-10 18:29PSTYesUNK/NMEUSGS127006.54 Unspecified NONE
3772013-01-10 18:14PSTYesUNK/NMEUSGS109006.69 Unspecified NONE
3762013-01-10 17:41PSTYesUNK/NMEUSGS52506.99 Unspecified NONE
3752013-01-10 17:27PSTYesUNK/NMEUSGS20507.12 Unspecified NONE
3742013-01-10 16:52PSTYesUNK/NMEUSGS-56907.39 Unspecified NONE
3732013-01-10 16:38PSTYesUNK/NMEUSGS-75407.47 Unspecified NONE
3722013-01-10 16:14PSTYesUNK/NMEUSGS-89107.66 Unspecified NONE
3712013-01-10 16:02PSTYesUNK/NMEUSGS-79607.76 Unspecified NONE
3702013-01-10 15:33PSTYesUNK/NMEUSGS-68307.97 Unspecified NONE
3692013-01-10 15:22PSTYesUNK/NMEUSGS-66608.01 Unspecified NONE
3682013-01-10 15:11PSTYesUNK/NMEUSGS-66008.04 Unspecified NONE
3672013-01-10 14:59PSTYesUNK/NMEUSGS-67708.05 Unspecified NONE
3662013-01-10 14:41PSTYesUNK/NMEUSGS-80008.02 Unspecified NONE
3652013-01-10 14:27PSTYesUNK/NMEUSGS-89507.98 Unspecified NONE
3642013-01-10 14:16PSTYesUNK/NMEUSGS-98007.93 Unspecified NONE
3632013-01-10 14:03PSTYesUNK/NMEUSGS-103007.86 Unspecified NONE
3622013-01-10 13:47PSTYesUNK/NMEUSGS-119007.75 Unspecified NONE
3612013-01-10 13:28PSTYesUNK/NMEUSGS-119007.59 Unspecified NONE
3602013-01-10 12:27PSTYesUNK/NMEUSGS-114007.05 Unspecified NONE
3592013-01-10 12:14PSTYesUNK/NMEUSGS-115006.94 Unspecified NONE
3582013-01-10 12:00PSTYesUNK/NMEUSGS-108006.80 Unspecified NONE
3572013-01-10 11:46PSTYesUNK/NMEUSGS-98506.64 Unspecified NONE
3562013-01-10 11:34PSTYesUNK/NMEUSGS-81606.54 Unspecified NONE
3552013-01-10 11:20PSTYesUNK/NMEUSGS-72506.40 Unspecified NONE
3542013-01-10 11:06PSTYesUNK/NMEUSGS-58306.28 Unspecified NONE
3532013-01-10 10:48PSTYesUNK/NMEUSGS-40306.11 Unspecified NONE
3522013-01-10 10:21PSTYesUNK/NMEUSGS-12805.86 Unspecified NONE
3512013-01-10 10:01PSTYesUNK/NMEUSGS21405.64 Unspecified NONE
3502013-01-10 09:45PSTYesUNK/NMEUSGS43005.48 Unspecified NONE
3492013-01-10 09:29PSTYesUNK/NMEUSGS57405.36 Unspecified NONE
3482013-01-10 09:16PSTYesUNK/NMEUSGS69505.27 Unspecified NONE
3472013-01-10 08:59PSTYesUNK/NMEUSGS74805.23 Unspecified NONE
3462012-12-31 15:51PSTYesUNK/NMEUSGS-84306.72 Unspecified NONE
3452012-12-31 15:37PSTYesUNK/NMEUSGS-76906.63 Unspecified NONE
3442012-12-31 15:22PSTYesUNK/NMEUSGS-58006.52 Unspecified NONE
3432012-12-31 15:05PSTYesUNK/NMEUSGS-42606.42 Unspecified NONE
3422012-12-31 14:19PSTYesUNK/NMEUSGS3966.09 Unspecified NONE
3412012-12-31 13:53PSTYesUNK/NMEUSGS20705.81 Unspecified NONE
3402012-01-18 17:17PSTYesUNK/NMEUSGS124004.86 Unspecified NONE
3392012-01-18 16:59PSTYesUNK/NMEUSGS133005.01 Unspecified NONE
3382012-01-18 16:42PSTYesUNK/NMEUSGS132005.17 Unspecified NONE
3372012-01-18 16:26PSTYesUNK/NMEUSGS131005.33 Unspecified NONE
3362012-01-18 16:11PSTYesUNK/NMEUSGS125005.46 Unspecified NONE
3352012-01-18 15:55PSTYesUNK/NMEUSGS126005.61 Unspecified NONE
3342010-07-13 18:39PSTYesUNK/NMEUSGS-10200 UnspecifiedUnspecifedNONE
3332010-07-13 18:30PSTYesUNK/NMEUSGS-10900 UnspecifiedUnspecifedNONE
3322010-07-13 18:19PSTYesUNK/NMEUSGS-11200 UnspecifiedUnspecifedNONE
3312010-07-13 18:11PSTYesUNK/NMEUSGS-11800 UnspecifiedUnspecifedNONE
3302010-07-13 18:01PSTYesUNK/NMEUSGS-11700 UnspecifiedUnspecifedNONE
3292010-07-13 17:36PSTYesUNK/NMEUSGS-11800 UnspecifiedUnspecifedNONE
3282010-07-13 17:24PSTYesUNK/NMEUSGS-12900 UnspecifiedUnspecifedNONE
3272010-07-13 17:12PSTYesUNK/NMEUSGS-12100 UnspecifiedUnspecifedNONE
3262010-07-13 16:58PSTYesUNK/NMEUSGS-12600 UnspecifiedUnspecifedNONE
3252010-07-13 16:45PSTYesUNK/NMEUSGS-11200 UnspecifiedUnspecifedNONE
3242010-07-13 16:33PSTYesUNK/NMEUSGS-11400 UnspecifiedUnspecifedNONE
3232010-07-13 16:22PSTYesUNK/NMEUSGS-10300 UnspecifiedUnspecifedNONE
3222010-07-13 16:12PSTYesUNK/NMEUSGS-9740 UnspecifiedUnspecifedNONE
3212010-07-13 16:01PSTYesUNK/NMEUSGS-8270 UnspecifiedUnspecifedNONE
3202010-07-13 15:48PSTYesUNK/NMEUSGS-7380 UnspecifiedUnspecifedNONE
3192010-07-13 15:37PSTYesUNK/NMEUSGS-5920 UnspecifiedUnspecifedNONE
3182010-07-13 15:25PSTYesUNK/NMEUSGS-5220 UnspecifiedUnspecifedNONE
3172010-07-13 15:14PSTYesUNK/NMEUSGS-4360 UnspecifiedUnspecifedNONE
3162010-07-13 15:04PSTYesUNK/NMEUSGS-3800 UnspecifiedUnspecifedNONE
3152010-07-13 14:51PSTYesUNK/NMEUSGS-3460 UnspecifiedUnspecifedNONE
3142010-07-13 14:39PSTYesUNK/NMEUSGS-2660 UnspecifiedUnspecifedNONE
3132010-07-13 14:22PSTYesUNK/NMEUSGS-1910 UnspecifiedUnspecifedNONE
3122010-07-13 14:04PSTYesUNK/NMEUSGS364 UnspecifiedUnspecifedNONE
3112010-07-13 13:50PSTYesUNK/NMEUSGS2430 UnspecifiedUnspecifedNONE
3102010-07-13 13:34PSTYesUNK/NMEUSGS4700 UnspecifiedUnspecifedNONE
3092010-07-13 13:23PSTYesUNK/NMEUSGS6330 UnspecifiedUnspecifedNONE
3082010-07-13 13:10PSTYesUNK/NMEUSGS7870 UnspecifiedUnspecifedNONE
3072010-07-13 12:58PSTYesUNK/NMEUSGS9200 UnspecifiedUnspecifedNONE
3062010-07-13 12:45PSTYesUNK/NMEUSGS10100 UnspecifiedUnspecifedNONE
3052010-07-13 12:29PSTYesUNK/NMEUSGS10900 UnspecifiedUnspecifedNONE
3042010-07-13 12:12PSTYesUNK/NMEUSGS10800 UnspecifiedUnspecifedNONE
3032010-07-13 11:56PSTYesUNK/NMEUSGS11400 UnspecifiedUnspecifedNONE
3022010-07-13 11:41PSTYesUNK/NMEUSGS11300 UnspecifiedUnspecifedNONE
3012010-07-13 11:26PSTYesUNK/NMEUSGS11800 UnspecifiedUnspecifedNONE
3002010-07-13 11:11PSTYesUNK/NMEUSGS12100 UnspecifiedUnspecifedNONE
2992010-07-13 10:57PSTYesUNK/NMEUSGS12100 UnspecifiedUnspecifedNONE
2982010-07-13 10:42PSTYesUNK/NMEUSGS13000 UnspecifiedUnspecifedNONE
2972010-07-13 10:27PSTYesUNK/NMEUSGS13500 UnspecifiedUnspecifedNONE
2962010-07-13 09:33PSTYesUNK/NMEUSGS14600 UnspecifiedUnspecifedNONE
2952010-07-13 09:14PSTYesUNK/NMEUSGS14700 UnspecifiedUnspecifedNONE
2942010-07-13 08:57PSTYesUNK/NMEUSGS14000 UnspecifiedUnspecifedNONE
2932010-07-13 08:44PSTYesUNK/NMEUSGS14000 UnspecifiedUnspecifedNONE
2922010-07-13 08:32PSTYesUNK/NMEUSGS12600 UnspecifiedUnspecifedNONE
2912010-07-13 08:17PSTYesUNK/NMEUSGS11900 UnspecifiedUnspecifedNONE
2902010-07-13 07:50PSTYesUNK/NMEUSGS7720 UnspecifiedUnspecifedNONE
2892010-07-13 07:40PSTYesUNK/NMEUSGS5340 UnspecifiedUnspecifedNONE
2882010-07-13 07:29PSTYesUNK/NMEUSGS3330 UnspecifiedUnspecifedNONE
2872010-07-13 07:17PSTYesUNK/NMEUSGS338 UnspecifiedUnspecifedNONE
2862010-07-13 07:06PSTYesUNK/NMEUSGS-1650 UnspecifiedUnspecifedNONE
2852010-07-13 06:54PSTYesUNK/NMEUSGS-4030 UnspecifiedUnspecifedNONE
2842010-07-13 06:43PSTYesUNK/NMEUSGS-5020 UnspecifiedUnspecifedNONE
2832010-07-13 06:30PSTYesUNK/NMEUSGS-6450 UnspecifiedUnspecifedNONE
2822010-07-13 05:24PSTYesUNK/NMEUSGS-6680 UnspecifiedUnspecifedNONE
2812010-07-13 05:14PSTYesUNK/NMEUSGS-7050 UnspecifiedUnspecifedNONE
2802010-07-13 05:08PSTYesUNK/NMEUSGS-7780 UnspecifiedUnspecifedNONE
2792010-01-25 14:51PSTYesUNK/NMEUSGS7460 UnspecifiedUnspecifedNONE
2782010-01-25 14:45PSTYesUNK/NMEUSGS6680 UnspecifiedUnspecifedNONE
2772010-01-25 14:39PSTYesUNK/NMEUSGS5540 UnspecifiedUnspecifedNONE
2762010-01-25 14:33PSTYesUNK/NMEUSGS4380 UnspecifiedUnspecifedNONE
2752010-01-25 14:27PSTYesUNK/NMEUSGS3240 UnspecifiedUnspecifedNONE
2742010-01-25 14:20PSTYesUNK/NMEUSGS1980 UnspecifiedUnspecifedNONE
2732009-06-23 18:05PSTYesUNK/NMEUSGS-10900 UnspecifiedUnspecifedNONE
2722009-06-23 17:57PSTYesUNK/NMEUSGS-11100 UnspecifiedUnspecifedNONE
2712009-06-23 17:49PSTYesUNK/NMEUSGS-11600 UnspecifiedUnspecifedNONE
2702009-06-23 17:35PSTYesUNK/NMEUSGS-11800 UnspecifiedUnspecifedNONE
2692009-06-23 17:25PSTYesUNK/NMEUSGS-12600 UnspecifiedUnspecifedNONE
2682009-06-23 17:15PSTYesUNK/NMEUSGS-12400 UnspecifiedUnspecifedNONE
2672009-06-23 17:04PSTYesUNK/NMEUSGS-12300 UnspecifiedUnspecifedNONE
2662009-06-23 16:53PSTYesUNK/NMEUSGS-12200 UnspecifiedUnspecifedNONE
2652009-06-23 16:41PSTYesUNK/NMEUSGS-12300 UnspecifiedUnspecifedNONE
2642009-06-23 16:27PSTYesUNK/NMEUSGS-11900 UnspecifiedUnspecifedNONE
2632009-06-23 16:12PSTYesUNK/NMEUSGS-11600 UnspecifiedUnspecifedNONE
2622009-06-23 15:51PSTYesUNK/NMEUSGS-9500 UnspecifiedUnspecifedNONE
2612009-06-23 15:40PSTYesUNK/NMEUSGS-7660 UnspecifiedUnspecifedNONE
2602009-06-23 15:26PSTYesUNK/NMEUSGS-5500 UnspecifiedUnspecifedNONE
2592009-06-23 15:13PSTYesUNK/NMEUSGS-2970 UnspecifiedUnspecifedNONE
2582009-06-23 14:53PSTYesUNK/NMEUSGS-317 UnspecifiedUnspecifedNONE
2572009-06-23 14:33PSTYesUNK/NMEUSGS1100 UnspecifiedUnspecifedNONE
2562009-06-23 14:17PSTYesUNK/NMEUSGS968 UnspecifiedUnspecifedNONE
2552009-06-23 13:59PSTYesUNK/NMEUSGS1250 UnspecifiedUnspecifedNONE
2542009-06-23 13:44PSTYesUNK/NMEUSGS1930 UnspecifiedUnspecifedNONE
2532009-06-23 13:30PSTYesUNK/NMEUSGS3600 UnspecifiedUnspecifedNONE
2522009-06-23 13:15PSTYesUNK/NMEUSGS5500 UnspecifiedUnspecifedNONE
2512009-06-23 12:58PSTYesUNK/NMEUSGS8240 UnspecifiedUnspecifedNONE
2502009-06-23 12:41PSTYesUNK/NMEUSGS10700 UnspecifiedUnspecifedNONE
2492009-06-23 12:26PSTYesUNK/NMEUSGS11800 UnspecifiedUnspecifedNONE
2482009-06-23 12:09PSTYesUNK/NMEUSGS12600 UnspecifiedUnspecifedNONE
2472009-06-23 11:53PSTYesUNK/NMEUSGS13600 UnspecifiedUnspecifedNONE
2462009-06-23 11:12PSTYesUNK/NMEUSGS14300 UnspecifiedUnspecifedNONE
2452009-06-23 10:57PSTYesUNK/NMEUSGS14400 UnspecifiedUnspecifedNONE
2442009-06-23 10:41PSTYesUNK/NMEUSGS13500 UnspecifiedUnspecifedNONE
2432009-06-23 10:24PSTYesUNK/NMEUSGS14200 UnspecifiedUnspecifedNONE
2422009-06-23 10:06PSTYesUNK/NMEUSGS13500 UnspecifiedUnspecifedNONE
2412009-06-23 09:50PSTYesUNK/NMEUSGS14600 UnspecifiedUnspecifedNONE
2402009-06-23 09:17PSTYesUNK/NMEUSGS14600 UnspecifiedUnspecifedNONE
2392009-06-23 09:02PSTYesUNK/NMEUSGS15800 UnspecifiedUnspecifedNONE
2382009-06-23 08:00PSTYesUNK/NMEUSGS14800 UnspecifiedUnspecifedNONE
2372009-06-23 07:46PSTYesUNK/NMEUSGS14400 UnspecifiedUnspecifedNONE
2362009-06-23 07:31PSTYesUNK/NMEUSGS13600 UnspecifiedUnspecifedNONE
2352009-06-23 07:16PSTYesUNK/NMEUSGS13300 UnspecifiedUnspecifedNONE
2342009-06-23 07:02PSTYesUNK/NMEUSGS10600 UnspecifiedUnspecifedNONE
2332009-06-23 06:49PSTYesUNK/NMEUSGS8170 UnspecifiedUnspecifedNONE
2322009-06-23 06:35PSTYesUNK/NMEUSGS4800 UnspecifiedUnspecifedNONE
2312009-06-23 06:21PSTYesUNK/NMEUSGS11306.30 UnspecifiedUnspecifedNONE
2302009-03-11 10:18PSTYesBJS/PHKUSGS116004.63 Unspecified NONE
2292009-03-11 10:09PSTYesBJS/PHKUSGS121004.69 Unspecified NONE
2282009-03-11 09:59PSTYesBJS/PHKUSGS118004.75 Unspecified NONE
2272009-03-11 09:49PSTYesBJS/PHKUSGS123004.83 Unspecified NONE
2262009-03-11 09:38PSTYesBJS/PHKUSGS120004.92 Unspecified NONE
2252009-03-11 09:26PSTYesBJS/PHKUSGS120005.02 Unspecified NONE
2242008-08-19 15:28PSTYesBSJ/CRBUSGS-68105.70 Unspecified NONE
2232008-08-19 15:22PSTYesBSJ/CRBUSGS-60205.65 Unspecified NONE
2222008-08-19 15:16PSTYesBSJ/CRBUSGS-49805.61 Unspecified NONE
2212008-08-19 15:06PSTYesBSJ/CRBUSGS-40005.52 Unspecified NONE
2202008-08-19 14:58PSTYesBSJ/CRBUSGS-30805.47 Unspecified NONE
2192008-08-19 14:53PSTYesBSJ/CRBUSGS-23205.42 Unspecified NONE
2182008-08-19 14:48PSTYesBSJ/CRBUSGS-18805.38 Unspecified NONE
2172008-08-19 14:42PSTYesBSJ/CRBUSGS-12805.34 Unspecified NONE
2162008-08-19 14:36PSTYesBSJ/CRBUSGS-9495.29 Unspecified NONE
2152008-08-19 14:29PSTYesBSJ/CRBUSGS-2035.24 Unspecified NONE
2142008-06-18 17:27PSTYesBSJ/PKxUSGS-110005.97 Unspecified NONE
2132008-06-18 17:20PSTYesBSJ/PKxUSGS-121005.94 Unspecified NONE
2122008-06-18 17:13PSTYesBSJ/PKxUSGS-114005.90 Unspecified NONE
2112008-06-18 17:08PSTYesBSJ/PKxUSGS-119005.86 Unspecified NONE
2102008-06-18 17:02PSTYesBSJ/PKxUSGS-123005.82 Unspecified NONE
2092008-06-18 16:56PSTYesBSJ/PKxUSGS-118005.78 Unspecified NONE
2082008-06-18 16:50PSTYesBSJ/PKxUSGS-120005.74 Unspecified NONE
2072008-06-18 16:45PSTYesBSJ/PKxUSGS-118005.70 Unspecified NONE
2062008-06-18 16:39PSTYesBSJ/PKxUSGS-116005.66 Unspecified NONE
2052008-06-18 16:33PSTYesBSJ/PKxUSGS-116005.61 Unspecified NONE
2042008-06-18 16:27PSTYesBSJ/PKxUSGS-120005.57 Unspecified NONE
2032008-06-18 16:20PSTYesBSJ/PKxUSGS-121005.52 Unspecified NONE
2022008-05-13 17:48PSTYesJBD/TMGUSGS110003.80 Unspecified NONE
2012008-05-13 17:38PSTYesJBD/TMGUSGS114003.80 Unspecified NONE
2002008-05-13 17:30PSTYesJBD/TMGUSGS119003.82 Unspecified NONE
1992008-05-13 17:23PSTYesJBD/TMGUSGS126003.85 Unspecified NONE
1982008-05-13 17:16PSTYesJBD/TMGUSGS125003.89 Unspecified NONE
1972008-05-13 17:09PSTYesJBD/TMGUSGS132003.93 Unspecified NONE
1962008-05-13 17:01PSTYesJBD/TMGUSGS134003.97 Unspecified NONE
1952008-05-13 16:52PSTYesJBD/TMGUSGS136003.99 Unspecified NONE
1942008-05-13 16:42PSTYesJBD/TMGUSGS136004.01 Unspecified NONE
1932008-05-13 16:31PSTYesJBD/TMGUSGS140004.05 Unspecified NONE
1922008-05-13 16:22PSTYesJBD/TMGUSGS138004.10 Unspecified NONE
1912008-05-13 16:14PSTYesJBD/TMGUSGS138004.15 Unspecified NONE
1902008-05-13 16:06PSTYesJBD/TMGUSGS136004.22 Unspecified NONE
1892008-05-13 15:53PSTYesJBD/TMGUSGS134004.30 Unspecified NONE
1882008-05-13 15:38PSTYesJBD/TMGUSGS124004.39 Unspecified NONE
1872008-05-13 15:24PSTYesJBD/TMGUSGS121004.50 Unspecified NONE
1862008-05-13 15:10PSTYesJBD/TMGUSGS106004.62 Unspecified NONE
1852008-05-13 14:56PSTYesJBD/TMGUSGS96204.75 Unspecified NONE
1842008-05-13 14:43PSTYesJBD/TMGUSGS82804.86 Unspecified NONE
1832008-05-13 14:33PSTYesJBD/TMGUSGS73604.95 Unspecified NONE
1822008-05-13 14:24PSTYesJBD/TMGUSGS58605.03 Unspecified NONE
1812008-05-13 14:13PSTYesJBD/TMGUSGS45405.11 Unspecified NONE
1802008-05-13 14:03PSTYesJBD/TMGUSGS26505.20 Unspecified NONE
1792008-05-13 13:53PSTYesJBD/TMGUSGS6055.28 Unspecified NONE
1782008-05-13 13:42PSTYesJBD/TMGUSGS-12605.36 Unspecified NONE
1772008-05-13 13:24PSTYesJBD/TMGUSGS-43605.52 Unspecified NONE
1762008-05-13 13:09PSTYesJBD/TMGUSGS-63505.63 Unspecified NONE
1752008-05-13 12:54PSTYesJBD/TMGUSGS-75105.73 Unspecified NONE
1742008-05-13 12:40PSTYesJBD/TMGUSGS-81205.83 Unspecified NONE
1732008-05-13 12:28PSTYesJBD/TMGUSGS-80005.90 Unspecified NONE
1722008-05-13 12:17PSTYesJBD/TMGUSGS-80605.96 Unspecified NONE
1712008-05-13 12:05PSTYesJBD/TMGUSGS-82505.99 Unspecified NONE
1702008-05-13 11:53PSTYesJBD/TMGUSGS-84606.03 Unspecified NONE
1692008-05-13 11:37PSTYesJBD/TMGUSGS-90606.07 Unspecified NONE
1682008-05-13 11:21PSTYesJBD/TMGUSGS-93006.06 Unspecified NONE
1672008-05-13 11:09PSTYesJBD/TMGUSGS-93906.03 Unspecified NONE
1662008-05-13 10:57PSTYesJBD/TMGUSGS-97105.99 Unspecified NONE
1652008-05-13 10:45PSTYesJBD/TMGUSGS-91705.96 Unspecified NONE
1642008-05-13 10:33PSTYesJBD/TMGUSGS-90605.91 Unspecified NONE
1632008-05-13 10:21PSTYesJBD/TMGUSGS-88305.85 Unspecified NONE
1622008-05-13 10:08PSTYesJBD/TMGUSGS-90605.79 Unspecified NONE
1612008-05-13 09:57PSTYesJBD/TMGUSGS-78005.73 Unspecified NONE
1602008-05-13 09:46PSTYesJBD/TMGUSGS-72205.65 Unspecified NONE
1592008-05-13 09:33PSTYesJBD/TMGUSGS-61505.59 Unspecified NONE
1582008-05-13 09:20PSTYesJBD/TMGUSGS-40605.51 Unspecified NONE
1572008-05-13 09:07PSTYesJBD/TMGUSGS-22105.43 Unspecified NONE
1562008-05-13 08:54PSTYesJBD/TMGUSGS-8.005.36 Unspecified NONE
1552008-05-13 08:44PSTYesJBD/TMGUSGS14805.30 Unspecified NONE
1542008-05-13 08:35PSTYesJBD/TMGUSGS27405.22 Unspecified NONE
1532008-05-13 08:25PSTYesJBD/TMGUSGS35605.16 Unspecified NONE
1522008-05-13 08:16PSTYesJBD/TMGUSGS43205.11 Unspecified NONE
1512008-05-13 08:06PSTYesJBD/TMGUSGS45905.04 Unspecified NONE
1502008-05-13 07:57PSTYesJBD/TMGUSGS49704.97 Unspecified NONE
1492008-05-13 07:48PSTYesJBD/TMGUSGS50804.90 Unspecified NONE
1482008-05-13 07:38PSTYesJBD/TMGUSGS48304.83 Unspecified NONE
1472008-01-15 15:33PSTYesBJS/TMGUSGS109004.61 Unspecified NONE
1462008-01-15 15:21PSTYesBJS/TMGUSGS113004.69 Unspecified NONE
1452008-01-15 15:08PSTYesBJS/TMGUSGS115004.79 Unspecified NONE
1442008-01-15 14:55PSTYesBJS/TMGUSGS117004.89 Unspecified NONE
1432008-01-15 14:42PSTYesBJS/TMGUSGS115004.99 Unspecified NONE
1422008-01-15 14:29PSTYesBJS/TMGUSGS117005.11 Unspecified NONE
1412007-12-04 17:24PSTYesPSx/TMGUSGS121004.96 Unspecified NONE
1402007-12-04 17:16PSTYesPSx/TMGUSGS118005.02 Unspecified NONE
1392007-12-04 17:08PSTYesPSx/TMGUSGS119005.09 Unspecified NONE
1382007-12-04 17:00PSTYesPSx/TMGUSGS114005.15 Unspecified NONE
1372007-12-04 16:52PSTYesPSx/TMGUSGS113005.22 Unspecified NONE
1362007-12-04 16:43PSTYesPSx/TMGUSGS108005.29 Unspecified NONE
1352007-12-04 16:34PSTYesPSx/TMGUSGS98505.36 Unspecified NONE
1342007-12-04 16:26PSTYesPSx/TMGUSGS88705.43 Unspecified NONE
1332007-12-04 16:17PSTYesPSx/TMGUSGS74405.50 Unspecified NONE
1322007-12-04 16:09PSTYesPSx/TMGUSGS57905.57 Unspecified NONE
1312007-12-04 15:41PSTYesPSx/TMGUSGS-5275.77 Unspecified NONE
1302007-12-04 15:32PSTYesPSx/TMGUSGS-26205.84 Unspecified NONE
1292007-12-04 15:23PSTYesPSx/TMGUSGS-44205.90 Unspecified NONE
1282007-12-04 15:15PSTYesPSx/TMGUSGS-58605.96 Unspecified NONE
1272007-12-04 15:04PSTYesPSx/TMGUSGS-74806.04 Unspecified NONE
1262007-12-04 14:56PSTYesPSx/TMGUSGS-82806.09 Unspecified NONE
1252007-12-04 14:48PSTYesPSx/TMGUSGS-84906.15 Unspecified NONE
1242007-12-04 14:41PSTYesPSx/TMGUSGS-85606.20 Unspecified NONE
1232007-12-04 14:33PSTYesPSx/TMGUSGS-86406.25 Unspecified NONE
1222007-12-04 14:25PSTYesPSx/TMGUSGS-85106.31 Unspecified NONE
1212007-12-04 14:17PSTYesPSx/TMGUSGS-78906.36 Unspecified NONE
1202007-12-04 14:10PSTYesPSx/TMGUSGS-78706.39 Unspecified NONE
1192007-12-04 14:02PSTYesPSx/TMGUSGS-73306.43 Unspecified NONE
1182007-12-04 13:54PSTYesPSx/TMGUSGS-75306.46 Unspecified NONE
1172007-12-04 13:46PSTYesPSx/TMGUSGS-73406.48 Unspecified NONE
1162007-12-04 13:38PSTYesPSx/TMGUSGS-73806.49 Unspecified NONE
1152007-12-04 13:31PSTYesPSx/TMGUSGS-73506.50 Unspecified NONE
1142007-12-04 13:23PSTYesPSx/TMGUSGS-76306.49 Unspecified NONE
1132007-12-04 13:15PSTYesPSx/TMGUSGS-77806.49 Unspecified NONE
1122007-12-04 13:07PSTYesPSx/TMGUSGS-81706.47 Unspecified NONE
1112007-12-04 12:59PSTYesPSx/TMGUSGS-87506.45 Unspecified NONE
1102007-12-04 12:52PSTYesPSx/TMGUSGS-88106.42 Unspecified NONE
1092007-12-04 12:44PSTYesPSx/TMGUSGS-93906.39 Unspecified NONE
1082007-12-04 12:36PSTYesPSx/TMGUSGS-98606.36 Unspecified NONE
1072007-12-04 12:25PSTYesPSx/TMGUSGS-106006.31 Unspecified NONE
1062007-12-04 12:17PSTYesPSx/TMGUSGS-109006.26 Unspecified NONE
1052007-12-04 12:09PSTYesPSx/TMGUSGS-111006.21 Unspecified NONE
1042007-12-04 11:47PSTYesPSx/TMGUSGS-120006.06 Unspecified NONE
1032007-12-04 11:39PSTYesPSx/TMGUSGS-122006.01 Unspecified NONE
1022007-12-04 11:31PSTYesPSx/TMGUSGS-127005.95 Unspecified NONE
1012007-12-04 11:23PSTYesPSx/TMGUSGS-127005.88 Unspecified NONE
1002007-12-04 10:12PSTYesPSx/TMGUSGS-121005.27 Unspecified NONE
992007-12-04 10:04PSTYesPSx/TMGUSGS-115005.20 Unspecified NONE
982007-12-04 09:57PSTYesPSx/TMGUSGS-113005.13 Unspecified NONE
972007-12-04 09:49PSTYesPSx/TMGUSGS-108005.06 Unspecified NONE
962007-12-04 09:41PSTYesPSx/TMGUSGS-98404.99 Unspecified NONE
952007-12-04 09:33PSTYesPSx/TMGUSGS-94604.93 Unspecified NONE
942007-12-04 09:24PSTYesPSx/TMGUSGS-77004.86 Unspecified NONE
932007-12-04 09:17PSTYesPSx/TMGUSGS-72104.80 Unspecified NONE
922007-12-04 09:09PSTYesPSx/TMGUSGS-62404.74 Unspecified NONE
912007-12-04 09:02PSTYesPSx/TMGUSGS-55704.67 Unspecified NONE
902007-12-04 08:55PSTYesPSx/TMGUSGS-43104.62 Unspecified NONE
892007-12-04 08:48PSTYesPSx/TMGUSGS-43204.58 Unspecified NONE
882007-03-06 19:01PSTYesxxx/xxxUSGS-79206.22 Unspecified NONE
872007-03-06 18:51PSTYesxxx/xxxUSGS-76606.25 Unspecified NONE
862007-03-06 18:42PSTYesxxx/xxxUSGS-83206.26 Unspecified NONE
852007-03-06 18:32PSTYesxxx/xxxUSGS-86806.28 Unspecified NONE
842007-03-06 18:23PSTYesxxx/xxxUSGS-91906.27 Unspecified NONE
832007-03-06 18:13PSTYesxxx/xxxUSGS-97306.23 Unspecified NONE
822007-03-06 18:03PSTYesxxx/xxxUSGS-103006.22 Unspecified NONE
812007-03-06 17:53PSTYesxxx/xxxUSGS-105006.21 Unspecified NONE
802007-03-06 17:43PSTYesxxx/xxxUSGS-106006.13 Unspecified NONE
792007-03-06 17:33PSTYesxxx/xxxUSGS-115006.10 Unspecified NONE
782007-03-06 16:58PSTYesxxx/xxxUSGS-115005.87 Unspecified NONE
772007-03-06 16:48PSTYesxxx/xxxUSGS-114005.80 Unspecified NONE
762007-03-06 16:38PSTYesxxx/xxxUSGS-111005.72 Unspecified NONE
752007-03-06 16:27PSTYesxxx/xxxUSGS-108005.64 Unspecified NONE
742007-03-06 16:17PSTYesxxx/xxxUSGS-104005.57 Unspecified NONE
732007-03-06 16:05PSTYesxxx/xxxUSGS-95305.47 Unspecified NONE
722007-03-06 15:51PSTYesxxx/xxxUSGS-77005.36 Unspecified NONE
712007-03-06 15:39PSTYesxxx/xxxUSGS-58905.27 Unspecified NONE
702007-03-06 15:29PSTYesxxx/xxxUSGS-50005.20 Unspecified NONE
692007-03-06 15:20PSTYesxxx/xxxUSGS-31205.12 Unspecified NONE
682007-03-06 15:09PSTYesxxx/xxxUSGS-23205.05 Unspecified NONE
672007-03-06 14:56PSTYesxxx/xxxUSGS-2204.95 Unspecified NONE
662007-03-06 14:44PSTYesxxx/xxxUSGS4354.85 Unspecified NONE
652007-03-06 14:31PSTYesxxx/xxxUSGS14704.74 Unspecified NONE
642007-03-06 14:20PSTYesxxx/xxxUSGS14604.64 Unspecified NONE
632007-03-06 14:08PSTYesxxx/xxxUSGS22204.53 Unspecified NONE
622007-03-06 13:56PSTYesxxx/xxxUSGS21904.43 Unspecified NONE
612007-03-06 13:41PSTYesxxx/xxxUSGS28704.32 Unspecified NONE
602007-03-06 13:29PSTYesxxx/xxxUSGS31204.24 Unspecified NONE
592007-03-06 13:16PSTYesxxx/xxxUSGS46104.20 Unspecified NONE
582007-03-06 13:06PSTYesxxx/xxxUSGS51104.19 Unspecified NONE
572007-03-06 12:57PSTYesxxx/xxxUSGS63604.20 Unspecified NONE
562007-03-06 12:47PSTYesxxx/xxxUSGS67404.21 Unspecified NONE
552007-03-06 12:37PSTYesxxx/xxxUSGS80704.23 Unspecified NONE
542007-03-06 12:28PSTYesxxx/xxxUSGS82504.26 Unspecified NONE
532007-03-06 12:14PSTYesxxx/xxxUSGS94204.31 Unspecified NONE
522007-03-06 12:00PSTYesxxx/xxxUSGS98104.38 Unspecified NONE
512007-03-06 11:47PSTYesxxx/xxxUSGS108004.45 Unspecified NONE
502007-03-06 11:39PSTYesxxx/xxxUSGS108004.50 Unspecified NONE
492007-03-06 11:30PSTYesxxx/xxxUSGS111004.55 Unspecified NONE
482007-03-06 10:59PSTYesxxx/xxxUSGS115004.77 Unspecified NONE
472007-03-06 10:49PSTYesxxx/xxxUSGS116004.85 Unspecified NONE
462007-03-06 10:37PSTYesxxx/xxxUSGS115004.94 Unspecified NONE
452007-03-06 10:26PSTYesxxx/xxxUSGS113005.02 Unspecified NONE
442007-03-06 10:15PSTYesxxx/xxxUSGS108005.12 Unspecified NONE
432007-03-06 10:05PSTYesxxx/xxxUSGS102005.20 Unspecified NONE
422007-03-06 09:54PSTYesxxx/xxxUSGS90005.30 Unspecified NONE
412007-03-06 09:43PSTYesxxx/xxxUSGS85105.38 Unspecified NONE
402007-03-06 09:34PSTYesxxx/xxxUSGS67705.45 Unspecified NONE
392007-03-06 09:25PSTYesxxx/xxxUSGS60805.52 Unspecified NONE
382007-03-06 09:16PSTYesxxx/xxxUSGS38605.59 Unspecified NONE
372007-03-06 09:07PSTYesxxx/xxxUSGS27505.66 Unspecified NONE
362007-03-06 08:58PSTYesxxx/xxxUSGS-37.05.73 Unspecified NONE
352006-08-01 17:45PSTYesxxx/xxxUSGS-100005.93 Unspecified NONE
342006-08-01 17:36PSTYesxxx/xxxUSGS-97405.85 Unspecified NONE
332006-08-01 17:26PSTYesxxx/xxxUSGS-81805.77 Unspecified NONE
322006-08-01 17:15PSTYesxxx/xxxUSGS-72705.68 Unspecified NONE
312006-08-01 17:03PSTYesxxx/xxxUSGS-58605.58 Unspecified NONE
302006-08-01 16:53PSTYesxxx/xxxUSGS-45205.50 Unspecified NONE
292006-08-01 16:43PSTYesxxx/xxxUSGS-35205.43 Unspecified NONE
282006-08-01 16:33PSTYesxxx/xxxUSGS-24405.35 Unspecified NONE
272006-08-01 16:23PSTYesxxx/xxxUSGS-13605.29 Unspecified NONE
262006-08-01 16:14PSTYesxxx/xxxUSGS-3135.22 Unspecified NONE
252006-08-01 16:05PSTYesxxx/xxxUSGS3295.15 Unspecified NONE
242006-08-01 15:55PSTYesxxx/xxxUSGS8035.08 Unspecified NONE
232006-08-01 15:45PSTYesxxx/xxxUSGS13505.02 Unspecified NONE
222006-08-01 15:32PSTYesxxx/xxxUSGS19204.94 Unspecified NONE
212006-08-01 15:21PSTYesxxx/xxxUSGS25004.89 Unspecified NONE
202006-08-01 15:07PSTYesxxx/xxxUSGS36004.85 Unspecified NONE
192006-08-01 14:49PSTYesxxx/xxxUSGS48904.85 Unspecified NONE
182006-08-01 14:40PSTYesxxx/xxxUSGS53304.86 Unspecified NONE
172006-08-01 14:31PSTYesxxx/xxxUSGS62204.88 Unspecified NONE
162006-08-01 14:19PSTYesxxx/xxxUSGS66204.90 Unspecified NONE
152006-08-01 14:09PSTYesxxx/xxxUSGS68904.94 Unspecified NONE
142006-08-01 13:50PSTYesxxx/xxxUSGS73605.02 Unspecified NONE
132006-08-01 13:40PSTYesxxx/xxxUSGS72705.07 Unspecified NONE
122006-08-01 13:29PSTYesxxx/xxxUSGS71505.13 Unspecified NONE
112006-08-01 13:05PSTYesxxx/xxxUSGS62605.27 Unspecified NONE
102006-08-01 12:50PSTYesxxx/xxxUSGS50505.37 Unspecified NONE
92006-08-01 12:38PSTYesxxx/xxxUSGS42405.43 Unspecified NONE
82006-08-01 12:27PSTYesxxx/xxxUSGS33305.50 Unspecified NONE
72006-08-01 12:17PSTYesxxx/xxxUSGS19905.57 Unspecified NONE
62006-08-01 12:06PSTYesxxx/xxxUSGS6305.63 Unspecified NONE
52006-08-01 11:55PSTYesxxx/xxxUSGS-10405.70 Unspecified NONE
42006-08-01 11:43PSTYesxxx/xxxUSGS-28805.77 Unspecified NONE
32006-08-01 11:32PSTYesxxx/xxxUSGS-42305.82 Unspecified NONE
22006-08-01 11:21PSTYesxxx/xxxUSGS-55305.88 Unspecified NONE
12006-08-01 11:12PSTYesxxx/xxxUSGS-66005.94 Unspecified NONE